Mugla, Turkey
Current Conditions -  °F | °C
As of 6:20 AM on Thursday 23 Oct 2014 (Local Time) from LTFE Reporting Station
Broken Clouds Broken Clouds  
Wind Chill: 70°   Ceiling: 10000
Heat Index: 70°   Visibility: 6mi
Dew Point: 59°   Wind: 14mph
Humidity: 68%   Direction: 150°SSE
Pressure: 29.77"   Gusts: NA
Location:  37.22°N, 28.36°E
Report Text: LTFE 230320Z 15012KT 9999 FEW020CB SCT030 BKN100 21/15 Q1008 TEMPO FM0350 4000 TSRA
Loading
Personal Weather Stations






























Interactive Weather Map
Tropical Storm Tracking
New forecast layout! Learn more

10-Day Weather Forecast

Advertisements
Track Severe Weather on mobile